createdAt,value
2019-02-11T00:00:42.461Z,94391.5
2019-02-11T00:01:44.633Z,94398.6
2019-02-11T00:02:46.801Z,94396
2019-02-11T00:03:49.224Z,94397.5
2019-02-11T00:04:51.655Z,94401
2019-02-11T00:05:54.076Z,94412.3
2019-02-11T00:06:56.494Z,94405.7
2019-02-11T00:07:58.921Z,94414.2
2019-02-11T00:09:01.346Z,94421.5
2019-02-11T00:10:03.769Z,94417.5
2019-02-11T00:11:05.653Z,94413.6
2019-02-11T00:12:07.807Z,94419
2019-02-11T00:13:12.364Z,94411.6
2019-02-11T00:14:14.230Z,94419.9
2019-02-11T00:15:16.655Z,94409.2
2019-02-11T00:16:18.812Z,94418
2019-02-11T00:17:22.690Z,94420.7
2019-02-11T00:18:25.116Z,94397
2019-02-11T00:19:27.557Z,94413
2019-02-11T00:20:29.713Z,94410.1
2019-02-11T00:21:31.870Z,94412.9
2019-02-11T00:22:34.302Z,94413.9
2019-02-11T00:23:36.456Z,94425.4
2019-02-11T00:24:38.618Z,94417.7
2019-02-11T00:25:41.039Z,94430
2019-02-11T00:26:43.191Z,94427.3
2019-02-11T00:27:45.613Z,94429.3
2019-02-11T00:28:47.775Z,94422.8
2019-02-11T00:29:49.930Z,94423.9
2019-02-11T00:30:52.360Z,94428.7
2019-02-11T00:31:54.794Z,94422.6
2019-02-11T00:32:57.466Z,94428.7
2019-02-11T00:33:59.798Z,94420.2
2019-02-11T00:35:02.231Z,94430.5
2019-02-11T00:36:04.112Z,94424.2
2019-02-11T00:37:06.534Z,94431.9
2019-02-11T00:38:08.974Z,94425.7
2019-02-11T00:39:10.868Z,94425.6
2019-02-11T00:40:13.294Z,94428.5
2019-02-11T00:41:15.735Z,94425.1
2019-02-11T00:42:18.146Z,94419.5
2019-02-11T00:43:20.953Z,94431
2019-02-11T00:44:23.115Z,94434.3
2019-02-11T00:45:25.269Z,94430.2
2019-02-11T00:46:27.422Z,94429.2
2019-02-11T00:47:29.851Z,94440.3
2019-02-11T00:48:31.995Z,94437.8
2019-02-11T00:49:34.413Z,94445.3
2019-02-11T00:50:36.835Z,94444.9
2019-02-11T00:51:38.991Z,94446.5
2019-02-11T00:52:41.413Z,94443
2019-02-11T00:53:43.844Z,94452.9
2019-02-11T00:54:45.995Z,94443.3
2019-02-11T00:55:48.415Z,94436.4
2019-02-11T00:56:50.843Z,94443.5
2019-02-11T00:57:52.705Z,94451.7
2019-02-11T00:58:54.574Z,94447.1
2019-02-11T00:59:57.033Z,94438.3
2019-02-11T01:00:59.183Z,94442.3
2019-02-11T01:02:01.603Z,94445.7
2019-02-11T01:03:03.759Z,94437.4
2019-02-11T01:04:05.634Z,94440
2019-02-11T01:05:07.526Z,94440.1
2019-02-11T01:06:09.956Z,94444.2
2019-02-11T01:07:12.113Z,94443.9
2019-02-11T01:08:14.264Z,94445.4
2019-02-11T01:09:16.411Z,94453.3
2019-02-11T01:10:18.327Z,94447.8
2019-02-11T01:11:20.209Z,94452.7
2019-02-11T01:12:22.634Z,94443.1
2019-02-11T01:14:30.031Z,94455.8
2019-02-11T01:15:31.902Z,94453.5
2019-02-11T01:16:34.334Z,94466
2019-02-11T01:17:36.765Z,94467.9
2019-02-11T01:18:42.050Z,94470.1
2019-02-11T01:19:44.416Z,94466.5
2019-02-11T01:20:46.573Z,94470.5
2019-02-11T01:21:48.453Z,94470.9
2019-02-11T01:22:50.879Z,94476.7
2019-02-11T01:23:53.309Z,94477.3
2019-02-11T01:24:55.458Z,94467.5
2019-02-11T01:25:57.889Z,94478.9
2019-02-11T01:27:00.029Z,94481
2019-02-11T01:28:02.194Z,94464.9
2019-02-11T01:29:04.083Z,94463
2019-02-11T01:30:06.513Z,94469
2019-02-11T01:31:08.939Z,94472.1
2019-02-11T01:32:10.819Z,94464.4
2019-02-11T01:33:13.251Z,94463.4
2019-02-11T01:34:15.689Z,94471.2
2019-02-11T01:35:18.112Z,94475
2019-02-11T01:36:20.537Z,94476.7
2019-02-11T01:37:22.682Z,94460.1
2019-02-11T01:38:24.843Z,94476.9
2019-02-11T01:39:26.991Z,94462.3
2019-02-11T01:40:28.845Z,94475
2019-02-11T01:41:31.001Z,94472.5
2019-02-11T01:42:33.423Z,94473.9
2019-02-11T01:43:37.681Z,94474
2019-02-11T01:44:39.831Z,94477.4
2019-02-11T01:45:42.041Z,94482.5
2019-02-11T01:46:44.463Z,94475.5
2019-02-11T01:47:46.889Z,94464.6
2019-02-11T01:48:49.321Z,94477.4
2019-02-11T01:49:51.753Z,94472.3
2019-02-11T01:50:53.623Z,94479.4
2019-02-11T01:51:55.773Z,94477.3
2019-02-11T01:52:58.198Z,94479.8
2019-02-11T01:53:59.827Z,94481.4
2019-02-11T01:55:01.947Z,94488.4
2019-02-11T01:56:04.093Z,94480.7
2019-02-11T01:57:06.298Z,94485.1
2019-02-11T01:58:08.719Z,94492.5
2019-02-11T01:59:10.875Z,94490
2019-02-11T02:00:13.298Z,94495.1
2019-02-11T02:01:15.723Z,94500.9
2019-02-11T02:02:17.598Z,94508.5
2019-02-11T02:03:19.459Z,94496.3
2019-02-11T02:04:21.895Z,94507.3
2019-02-11T02:05:24.337Z,94497.2
2019-02-11T02:06:26.207Z,94503
2019-02-11T02:07:28.637Z,94495.6
2019-02-11T02:08:31.079Z,94502.9
2019-02-11T02:09:33.511Z,94490.9
2019-02-11T02:10:35.661Z,94494.3
2019-02-11T02:11:37.815Z,94487.2
2019-02-11T02:12:39.953Z,94492.9
2019-02-11T02:14:47.355Z,94491.4
2019-02-11T02:15:49.507Z,94493.9
2019-02-11T02:16:51.123Z,94487.2
2019-02-11T02:17:53.329Z,94490.7
2019-02-11T02:18:55.475Z,94501.2
2019-02-11T02:19:57.647Z,94501.8
2019-02-11T02:21:00.003Z,94499.2
2019-02-11T02:22:02.165Z,94498.7
2019-02-11T02:23:04.051Z,94500.3
2019-02-11T02:24:05.937Z,94511.4
2019-02-11T02:25:08.093Z,94512.4
2019-02-11T02:26:10.525Z,94512
2019-02-11T02:27:12.947Z,94507.2
2019-02-11T02:28:15.106Z,94510.6
2019-02-11T02:29:17.232Z,94510
2019-02-11T02:30:19.662Z,94516.6
2019-02-11T02:31:22.093Z,94517.4
2019-02-11T02:32:24.239Z,94521.5
2019-02-11T02:33:26.656Z,94523.7
2019-02-11T02:34:28.818Z,94524.2
2019-02-11T02:35:30.949Z,94524.6
2019-02-11T02:36:33.373Z,94522.4
2019-02-11T02:37:35.506Z,94535
2019-02-11T02:38:37.657Z,94528.7
2019-02-11T02:39:39.797Z,94532.9
2019-02-11T02:40:41.964Z,94534
2019-02-11T02:41:44.386Z,94535.5
2019-02-11T02:42:46.544Z,94533.1
2019-02-11T02:44:53.689Z,94540.7
2019-02-11T02:45:55.859Z,94546.8
2019-02-11T02:46:58.267Z,94549.7
2019-02-11T02:48:00.138Z,94549.6
2019-02-11T02:49:02.005Z,94543.3
2019-02-11T02:50:04.431Z,94539.8
2019-02-11T02:51:06.864Z,94536.1
2019-02-11T02:52:09.293Z,94545.3
2019-02-11T02:53:11.439Z,94542.9
2019-02-11T02:54:13.861Z,94547.5
2019-02-11T02:55:16.297Z,94539.3
2019-02-11T02:56:18.713Z,94547.1
2019-02-11T02:57:20.895Z,94540.5
2019-02-11T02:58:23.328Z,94539.3
2019-02-11T02:59:25.483Z,94539.1
2019-02-11T03:00:27.623Z,94536.3
2019-02-11T03:01:29.475Z,94540.6
2019-02-11T03:02:32.007Z,94539.6
2019-02-11T03:03:34.124Z,94539.8
2019-02-11T03:04:36.289Z,94545.3
2019-02-11T03:05:38.713Z,94558
2019-02-11T03:06:41.144Z,94554.7
2019-02-11T03:07:43.301Z,94549.3
2019-02-11T03:08:45.228Z,94547.9
2019-02-11T03:09:47.402Z,94562.5
2019-02-11T03:10:49.825Z,94550.1
2019-02-11T03:11:52.250Z,94544.8
2019-02-11T03:12:54.313Z,94549.9
2019-02-11T03:15:01.451Z,94541
2019-02-11T03:16:03.897Z,94542.7
2019-02-11T03:17:06.034Z,94549.8
2019-02-11T03:18:08.173Z,94552.3
2019-02-11T03:19:10.603Z,94549.1
2019-02-11T03:20:13.031Z,94553.1
2019-02-11T03:21:15.461Z,94559.6
2019-02-11T03:22:17.327Z,94561.9
2019-02-11T03:23:19.192Z,94554.4
2019-02-11T03:24:21.346Z,94561.1
2019-02-11T03:25:23.794Z,94569.5
2019-02-11T03:26:26.221Z,94571.8
2019-02-11T03:27:28.650Z,94570.8
2019-02-11T03:28:30.783Z,94577
2019-02-11T03:29:33.209Z,94567.2
2019-02-11T03:30:35.637Z,94586.1
2019-02-11T03:31:38.114Z,94581.3
2019-02-11T03:32:40.575Z,94587
2019-02-11T03:33:42.748Z,94587.5
2019-02-11T03:34:44.655Z,94589.5
2019-02-11T03:35:47.067Z,94590.9
2019-02-11T03:36:49.504Z,94586.9
2019-02-11T03:37:51.930Z,94580.8
2019-02-11T03:38:54.092Z,94578.8
2019-02-11T03:39:56.523Z,94580.7
2019-02-11T03:40:58.675Z,94585.7
2019-02-11T03:42:01.102Z,94586.8
2019-02-11T03:43:03.518Z,94593.7
2019-02-11T03:45:11.609Z,94580.8
2019-02-11T03:46:14.035Z,94585.2
2019-02-11T03:47:16.203Z,94585.3
2019-02-11T03:48:18.640Z,94584.6
2019-02-11T03:49:21.065Z,94587
2019-02-11T03:50:23.485Z,94587.3
2019-02-11T03:51:25.656Z,94584.5
2019-02-11T03:52:27.267Z,94585.9
2019-02-11T03:53:29.689Z,94583.8
2019-02-11T03:54:31.851Z,94586.3
2019-02-11T03:55:34.271Z,94587.5
2019-02-11T03:56:36.690Z,94588.3
2019-02-11T03:57:39.128Z,94590.4
2019-02-11T03:58:41.276Z,94591.6
2019-02-11T03:59:43.704Z,94595.6
2019-02-11T04:00:46.138Z,94595.4
2019-02-11T04:01:48.583Z,94595.3
2019-02-11T04:02:50.750Z,94606.6
2019-02-11T04:03:52.903Z,94606.3
2019-02-11T04:04:55.060Z,94607.9
2019-02-11T04:05:57.539Z,94610.1
2019-02-11T04:06:59.685Z,94610.8
2019-02-11T04:08:01.563Z,94615.3
2019-02-11T04:09:03.721Z,94614
2019-02-11T04:10:05.881Z,94631
2019-02-11T04:11:08.024Z,94631.8
2019-02-11T04:12:10.170Z,94639.4
2019-02-11T04:13:12.316Z,94634.8
2019-02-11T04:14:14.463Z,94636.8
2019-02-11T04:15:21.093Z,94639.4
2019-02-11T04:16:23.246Z,94637.2
2019-02-11T04:17:25.374Z,94648.8
2019-02-11T04:18:27.524Z,94648.1
2019-02-11T04:19:30.036Z,94645.1
2019-02-11T04:20:32.177Z,94647.8
2019-02-11T04:21:34.618Z,94645.8
2019-02-11T04:22:37.049Z,94649.2
2019-02-11T04:23:39.491Z,94653.9
2019-02-11T04:24:41.644Z,94654.6
2019-02-11T04:25:43.788Z,94665.6
2019-02-11T04:26:46.214Z,94661.8
2019-02-11T04:27:47.826Z,94666
2019-02-11T04:28:49.973Z,94667.3
2019-02-11T04:29:52.124Z,94669.6
2019-02-11T04:30:54.549Z,94665.8
2019-02-11T04:31:57.126Z,94664.5
2019-02-11T04:32:59.579Z,94669.8
2019-02-11T04:34:02.033Z,94671.1
2019-02-11T04:35:04.181Z,94666.8
2019-02-11T04:36:06.365Z,94680.7
2019-02-11T04:37:08.801Z,94674
2019-02-11T04:38:11.036Z,94674.3
2019-02-11T04:39:13.195Z,94677.6
2019-02-11T04:40:15.345Z,94681.4
2019-02-11T04:41:17.518Z,94678.5
2019-02-11T04:42:19.682Z,94682.4
2019-02-11T04:43:22.106Z,94688.1
2019-02-11T04:45:30.209Z,94684.9
2019-02-11T04:46:32.654Z,94685.4
2019-02-11T04:47:34.541Z,94685.3
2019-02-11T04:48:36.997Z,94688.3
2019-02-11T04:49:39.456Z,94688.3
2019-02-11T04:50:41.908Z,94687
2019-02-11T04:51:43.820Z,94691.1
2019-02-11T04:52:45.714Z,94684.8
2019-02-11T04:53:47.914Z,94680.5
2019-02-11T04:54:50.356Z,94688
2019-02-11T04:55:52.813Z,94690.1
2019-02-11T04:56:55.255Z,94690.5
2019-02-11T04:57:57.393Z,94688.2
2019-02-11T04:58:59.559Z,94687.7
2019-02-11T05:00:02.100Z,94693.9
2019-02-11T05:01:04.266Z,94694.8
2019-02-11T05:02:06.701Z,94707.7
2019-02-11T05:03:09.144Z,94704.2
2019-02-11T05:04:11.586Z,94700.9
2019-02-11T05:05:13.751Z,94703.2
2019-02-11T05:06:16.184Z,94705
2019-02-11T05:07:18.365Z,94703.9
2019-02-11T05:08:20.528Z,94705
2019-02-11T05:09:22.677Z,94714.7
2019-02-11T05:10:25.124Z,94716
2019-02-11T05:11:27.554Z,94711.4
2019-02-11T05:12:29.976Z,94709.5
2019-02-11T05:13:32.149Z,94705.1
2019-02-11T05:15:40.086Z,94711.8
2019-02-11T05:16:42.532Z,94711.6
2019-02-11T05:17:44.677Z,94714.4
2019-02-11T05:18:47.105Z,94704.4
2019-02-11T05:19:49.539Z,94710.8
2019-02-11T05:20:51.702Z,94713.1
2019-02-11T05:21:53.895Z,94716.1
2019-02-11T05:22:56.357Z,94716.6
2019-02-11T05:23:58.488Z,94710.4
2019-02-11T05:25:00.916Z,94713
2019-02-11T05:26:02.826Z,94719.4
2019-02-11T05:27:05.002Z,94724.5
2019-02-11T05:28:07.440Z,94727.4
2019-02-11T05:29:09.880Z,94723.3
2019-02-11T05:30:12.074Z,94726.3
2019-02-11T05:31:13.945Z,94724.9
2019-02-11T05:32:15.855Z,94724.7
2019-02-11T05:33:18.318Z,94730.2
2019-02-11T05:34:20.929Z,94734.8
2019-02-11T05:35:23.067Z,94735.9
2019-02-11T05:36:25.494Z,94750.4
2019-02-11T05:37:27.911Z,94749.1
2019-02-11T05:38:30.063Z,94751.3
2019-02-11T05:39:31.654Z,94749.4
2019-02-11T05:40:34.074Z,94761.3
2019-02-11T05:41:36.501Z,94767.3
2019-02-11T05:42:38.354Z,94773.1
2019-02-11T05:43:40.838Z,94771.8
2019-02-11T05:44:53.065Z,94769.7
2019-02-11T05:45:49.674Z,94773.1
2019-02-11T05:46:52.135Z,94776.5
2019-02-11T05:47:54.002Z,94774.4
2019-02-11T05:48:56.434Z,94775.1
2019-02-11T05:49:58.870Z,94778.3
2019-02-11T05:51:01.295Z,94774.6
2019-02-11T05:52:03.726Z,94772.8
2019-02-11T05:53:06.142Z,94778.8
2019-02-11T05:54:08.299Z,94778.2
2019-02-11T05:55:10.725Z,94782.5
2019-02-11T05:56:12.868Z,94778.4
2019-02-11T05:57:15.285Z,94776.9
2019-02-11T05:58:17.715Z,94779.5
2019-02-11T05:59:20.165Z,94787.3
2019-02-11T06:00:22.588Z,94780.8
2019-02-11T06:01:25.002Z,94792
2019-02-11T06:02:27.430Z,94790.3
2019-02-11T06:03:29.879Z,94795.2
2019-02-11T06:04:32.324Z,94798.2
2019-02-11T06:05:34.206Z,94801.6
2019-02-11T06:06:36.628Z,94801
2019-02-11T06:07:38.765Z,94807.9
2019-02-11T06:08:41.198Z,94808.8
2019-02-11T06:09:43.334Z,94804.6
2019-02-11T06:10:45.759Z,94806.8
2019-02-11T06:11:48.206Z,94819.3
2019-02-11T06:12:50.639Z,94817.9
2019-02-11T06:13:52.810Z,94819.6
2019-02-11T06:15:59.959Z,94821.8
2019-02-11T06:17:02.385Z,94830.7
2019-02-11T06:18:04.012Z,94830.7
2019-02-11T06:19:05.924Z,94830.7
2019-02-11T06:20:08.088Z,94837.5
2019-02-11T06:21:10.510Z,94841.2
2019-02-11T06:22:12.683Z,94835
2019-02-11T06:23:15.108Z,94845.2
2019-02-11T06:24:17.532Z,94843.9
2019-02-11T06:25:19.947Z,94850.3
2019-02-11T06:26:22.373Z,94853.7
2019-02-11T06:27:24.826Z,94853.8
2019-02-11T06:28:26.959Z,94855.6
2019-02-11T06:29:28.856Z,94861.8
2019-02-11T06:30:31.004Z,94858.4
2019-02-11T06:31:33.439Z,94860.1
2019-02-11T06:32:35.636Z,94862.8
2019-02-11T06:33:39.076Z,94861
2019-02-11T06:34:41.355Z,94867.7
2019-02-11T06:35:43.782Z,94868.9
2019-02-11T06:36:45.927Z,94872.4
2019-02-11T06:37:48.349Z,94878
2019-02-11T06:38:50.197Z,94880.5
2019-02-11T06:39:52.631Z,94881.3
2019-02-11T06:40:54.790Z,94885
2019-02-11T06:41:57.214Z,94892.3
2019-02-11T06:42:59.640Z,94893.3
2019-02-11T06:44:01.249Z,94891.7
2019-02-11T06:45:12.434Z,94895.2
2019-02-11T06:46:09.832Z,94894.8
2019-02-11T06:47:12.014Z,94898.2
2019-02-11T06:48:14.448Z,94901.7
2019-02-11T06:49:16.866Z,94897.7
2019-02-11T06:50:19.302Z,94911.3
2019-02-11T06:51:21.455Z,94912.8
2019-02-11T06:52:23.898Z,94907.1
2019-02-11T06:53:26.049Z,94909.1
2019-02-11T06:54:28.195Z,94921.4
2019-02-11T06:55:30.068Z,94914.7
2019-02-11T06:56:32.500Z,94919.2
2019-02-11T06:57:34.372Z,94922.3
2019-02-11T06:58:36.815Z,94923
2019-02-11T06:59:39.247Z,94928.3
2019-02-11T07:00:41.677Z,94937.8
2019-02-11T07:01:44.122Z,94928.7
2019-02-11T07:02:46.540Z,94936.4
2019-02-11T07:03:48.710Z,94932.6
2019-02-11T07:04:51.132Z,94937.4
2019-02-11T07:05:53.564Z,94945.1
2019-02-11T07:06:55.706Z,94945.1
2019-02-11T07:07:58.145Z,94950.6
2019-02-11T07:09:00.313Z,94958.3
2019-02-11T07:10:02.733Z,94957.3
2019-02-11T07:11:05.168Z,94962.1
2019-02-11T07:12:07.582Z,94960.9
2019-02-11T07:13:10.020Z,94969.3
2019-02-11T07:14:12.161Z,94972.9
2019-02-11T07:16:19.321Z,94976.2
2019-02-11T07:17:21.197Z,94985.8
2019-02-11T07:18:23.348Z,94987.6
2019-02-11T07:19:25.773Z,94985.2
2019-02-11T07:20:28.205Z,94987.7
2019-02-11T07:21:30.635Z,94991.7
2019-02-11T07:22:32.784Z,94993.6
2019-02-11T07:23:35.202Z,94999.3
2019-02-11T07:24:37.625Z,95003.5
2019-02-11T07:25:39.810Z,95004.3
2019-02-11T07:26:42.224Z,95010.2
2019-02-11T07:27:44.382Z,95014.5
2019-02-11T07:28:46.808Z,95013.2
2019-02-11T07:29:48.965Z,95014.4
2019-02-11T07:30:51.404Z,95016.2
2019-02-11T07:31:53.285Z,95022
2019-02-11T07:32:54.919Z,95014.1
2019-02-11T07:33:57.337Z,95021.6
2019-02-11T07:34:59.788Z,95017.6
2019-02-11T07:36:02.484Z,95024.1
2019-02-11T07:37:05.370Z,95022.8
2019-02-11T07:38:07.805Z,95027.4
2019-02-11T07:39:09.411Z,95028
2019-02-11T07:40:11.836Z,95033.8
2019-02-11T07:41:14.260Z,95029.8
2019-02-11T07:42:16.685Z,95036.9
2019-02-11T07:43:19.099Z,95035.1
2019-02-11T07:44:21.264Z,95039.3
2019-02-11T07:46:28.677Z,95041
2019-02-11T07:47:31.089Z,95032.9
2019-02-11T07:48:33.505Z,95042.9
2019-02-11T07:49:35.406Z,95044.6
2019-02-11T07:50:37.614Z,95045.5
2019-02-11T07:52:45.030Z,95050.2
2019-02-11T07:53:46.932Z,95049.3
2019-02-11T07:54:48.524Z,95051.4
2019-02-11T07:55:50.673Z,95056.2
2019-02-11T07:56:52.849Z,95056.9
2019-02-11T07:57:55.276Z,95056.6
2019-02-11T07:58:57.725Z,95056
2019-02-11T08:00:00.273Z,95059.2
2019-02-11T08:01:02.738Z,95062.8
2019-02-11T08:02:05.195Z,95055.9
2019-02-11T08:03:07.064Z,95060.8
2019-02-11T08:04:09.496Z,95065.5
2019-02-11T08:05:11.924Z,95064.7
2019-02-11T08:06:14.074Z,95072.3
2019-02-11T08:07:16.274Z,95075.3
2019-02-11T08:08:18.700Z,95081.4
2019-02-11T08:09:21.135Z,95072.7
2019-02-11T08:10:23.029Z,95079.3
2019-02-11T08:11:25.445Z,95080.8
2019-02-11T08:12:27.332Z,95081.6
2019-02-11T08:13:29.496Z,95079.6
2019-02-11T08:14:31.645Z,95079.6
2019-02-11T08:16:38.815Z,95086.9
2019-02-11T08:17:41.256Z,95090.5
2019-02-11T08:18:43.689Z,95088.3
2019-02-11T08:19:45.843Z,95086.1
2019-02-11T08:20:48.268Z,95095.3
2019-02-11T08:21:50.136Z,95097
2019-02-11T08:22:52.033Z,95094
2019-02-11T08:23:54.473Z,95103.5
2019-02-11T08:24:56.923Z,95099
2019-02-11T08:25:59.357Z,95105.5
2019-02-11T08:27:01.529Z,95110
2019-02-11T08:28:03.963Z,95109.5
2019-02-11T08:29:06.405Z,95106.6
2019-02-11T08:30:08.545Z,95114.6
2019-02-11T08:31:10.990Z,95121.6
2019-02-11T08:32:13.132Z,95118.5
2019-02-11T08:33:15.563Z,95127.7
2019-02-11T08:34:18.004Z,95121.3
2019-02-11T08:35:20.427Z,95133.8
2019-02-11T08:36:22.581Z,95131.3
2019-02-11T08:37:24.206Z,95133.3
2019-02-11T08:38:26.087Z,95131.6
2019-02-11T08:39:28.269Z,95133.6
2019-02-11T08:40:30.155Z,95133.5
2019-02-11T08:41:32.583Z,95141.5
2019-02-11T08:42:34.744Z,95147.2
2019-02-11T08:43:36.901Z,95138.6
2019-02-11T08:44:38.777Z,95139.6
2019-02-11T08:46:45.645Z,95154.9
2019-02-11T08:47:48.073Z,95155.8
2019-02-11T08:48:50.658Z,95160.4
2019-02-11T08:49:52.889Z,95159.7
2019-02-11T08:50:55.038Z,95160.3
2019-02-11T08:51:56.937Z,95169
2019-02-11T08:52:59.095Z,95171.1
2019-02-11T08:54:01.259Z,95168.8
2019-02-11T08:55:03.420Z,95169.4
2019-02-11T08:56:05.300Z,95168.7
2019-02-11T08:57:07.723Z,95177.5
2019-02-11T08:58:10.159Z,95181.3
2019-02-11T08:59:12.293Z,95185.9
2019-02-11T09:00:14.717Z,95193.9
2019-02-11T09:01:17.147Z,95199.4
2019-02-11T09:02:19.307Z,95193.6
2019-02-11T09:03:21.475Z,95198.3
2019-02-11T09:04:23.637Z,95203.9
2019-02-11T09:05:25.761Z,95212.8
2019-02-11T09:06:27.893Z,95206.8
2019-02-11T09:07:29.534Z,95219.8
2019-02-11T09:08:31.959Z,95219.8
2019-02-11T09:09:34.387Z,95218.9
2019-02-11T09:10:36.827Z,95219
2019-02-11T09:11:39.252Z,95221.8
2019-02-11T09:12:41.683Z,95229.2
2019-02-11T09:13:43.841Z,95228.7
2019-02-11T09:14:46.281Z,95225.6
2019-02-11T09:16:53.431Z,95232.7
2019-02-11T09:17:55.593Z,95234.2
2019-02-11T09:18:57.488Z,95233.9
2019-02-11T09:19:59.912Z,95238.4
2019-02-11T09:21:02.400Z,95236.3
2019-02-11T09:23:09.838Z,95239
2019-02-11T09:24:11.706Z,95241.9
2019-02-11T09:25:14.207Z,95250.9
2019-02-11T09:26:16.624Z,95245.3
2019-02-11T09:27:19.061Z,95250.1
2019-02-11T09:28:21.486Z,95242.6
2019-02-11T09:29:23.356Z,95249.5
2019-02-11T09:30:25.233Z,95248.3
2019-02-11T09:31:27.662Z,95247.7
2019-02-11T09:32:29.815Z,95247.1
2019-02-11T09:33:32.014Z,95254.5
2019-02-11T09:34:34.467Z,95261.1
2019-02-11T09:35:36.885Z,95259.2
2019-02-11T09:36:39.035Z,95255.7
2019-02-11T09:37:41.455Z,95261.6
2019-02-11T09:38:43.748Z,95261.8
2019-02-11T09:39:46.289Z,95257.5
2019-02-11T09:40:48.227Z,95262.4
2019-02-11T09:41:50.674Z,95264.3
2019-02-11T09:42:53.100Z,95269
2019-02-11T09:43:55.254Z,95272.2
2019-02-11T09:44:57.685Z,95269.4
2019-02-11T09:47:05.093Z,95273.8
2019-02-11T09:48:07.260Z,95274.4
2019-02-11T09:49:09.415Z,95271.6
2019-02-11T09:50:11.555Z,95273.7
2019-02-11T09:51:13.986Z,95282.3
2019-02-11T09:52:15.853Z,95282.5
2019-02-11T09:53:18.288Z,95282
2019-02-11T09:54:20.716Z,95287.4
2019-02-11T09:55:22.869Z,95287
2019-02-11T09:56:25.016Z,95285.9
2019-02-11T09:57:26.606Z,95282.3
2019-02-11T09:58:28.526Z,95285.8
2019-02-11T09:59:30.693Z,95289.2
2019-02-11T10:00:33.130Z,95291.8
2019-02-11T10:01:35.580Z,95294.5
2019-02-11T10:02:37.747Z,95298.7
2019-02-11T10:03:39.908Z,95301.1
2019-02-11T10:04:41.786Z,95305.5
2019-02-11T10:05:44.228Z,95307.5
2019-02-11T10:06:46.367Z,95309.1
2019-02-11T10:07:48.785Z,95314.3
2019-02-11T10:08:51.238Z,95313.5
2019-02-11T10:09:53.381Z,95318.7
2019-02-11T10:10:55.550Z,95317.1
2019-02-11T10:11:57.705Z,95319.2
2019-02-11T10:13:00.140Z,95318.1
2019-02-11T10:14:02.575Z,95322.7
2019-02-11T10:15:05.005Z,95324
2019-02-11T10:17:12.123Z,95330.2
2019-02-11T10:18:14.551Z,95333.9
2019-02-11T10:19:16.972Z,95338.1
2019-02-11T10:20:19.396Z,95339.3
2019-02-11T10:21:21.544Z,95341.4
2019-02-11T10:22:23.963Z,95345.9
2019-02-11T10:23:25.837Z,95347.8
2019-02-11T10:24:28.276Z,95346.8
2019-02-11T10:25:30.156Z,95347.8
2019-02-11T10:26:32.345Z,95352
2019-02-11T10:27:34.274Z,95350.6
2019-02-11T10:28:36.434Z,95354.4
2019-02-11T10:29:38.023Z,95358.1
2019-02-11T10:30:40.485Z,95359.8
2019-02-11T10:31:42.634Z,95360.7
2019-02-11T10:32:44.825Z,95360.6
2019-02-11T10:33:47.261Z,95364.3
2019-02-11T10:34:49.747Z,95367.4
2019-02-11T10:35:52.153Z,95369.7
2019-02-11T10:36:54.589Z,95368.1
2019-02-11T10:37:56.723Z,95372.2
2019-02-11T10:38:58.890Z,95368.7
2019-02-11T10:40:01.106Z,95373.3
2019-02-11T10:41:02.997Z,95373.5
2019-02-11T10:42:04.606Z,95376.8
2019-02-11T10:43:06.771Z,95375.7
2019-02-11T10:44:10.568Z,95377.1
2019-02-11T10:45:12.738Z,95379.5
2019-02-11T10:47:20.142Z,95381.8
2019-02-11T10:48:22.574Z,95385.9
2019-02-11T10:49:24.998Z,95386.7
2019-02-11T10:50:27.432Z,95385.7
2019-02-11T10:51:29.874Z,95387
2019-02-11T10:52:32.309Z,95396.4
2019-02-11T10:53:34.738Z,95389.7
2019-02-11T10:54:37.162Z,95393.9
2019-02-11T10:55:39.602Z,95388.9
2019-02-11T10:56:42.073Z,95394.7
2019-02-11T10:57:44.243Z,95391.1
2019-02-11T10:58:46.412Z,95388.9
2019-02-11T10:59:48.561Z,95400.5
2019-02-11T11:00:50.729Z,95400.9
2019-02-11T11:01:53.151Z,95397.5
2019-02-11T11:02:55.578Z,95404.3
2019-02-11T11:03:57.732Z,95400.7
2019-02-11T11:04:59.885Z,95405.3
2019-02-11T11:06:02.045Z,95406.6
2019-02-11T11:07:04.200Z,95414.8
2019-02-11T11:08:06.343Z,95412.4
2019-02-11T11:09:08.225Z,95415.7
2019-02-11T11:10:10.099Z,95416.5
2019-02-11T11:11:12.547Z,95414.1
2019-02-11T11:12:14.686Z,95412.7
2019-02-11T11:13:17.125Z,95414.7
2019-02-11T11:14:19.271Z,95420.2
2019-02-11T11:15:21.694Z,95424.4
2019-02-11T11:17:29.104Z,95426
2019-02-11T11:18:31.265Z,95426.7
2019-02-11T11:19:33.131Z,95428.7
2019-02-11T11:20:35.560Z,95427.5
2019-02-11T11:21:39.207Z,95431.2
2019-02-11T11:22:41.707Z,95433.6
2019-02-11T11:23:44.140Z,95436.6
2019-02-11T11:24:46.004Z,95436.7
2019-02-11T11:25:48.471Z,95441.1
2019-02-11T11:26:50.382Z,95438.4
2019-02-11T11:27:52.547Z,95444.8
2019-02-11T11:28:54.690Z,95445.4
2019-02-11T11:29:56.562Z,95451.1
2019-02-11T11:30:58.418Z,95446.2
2019-02-11T11:32:00.558Z,95447.7
2019-02-11T11:33:02.980Z,95452.3
2019-02-11T11:34:05.424Z,95454.8
2019-02-11T11:35:07.294Z,95454.2
2019-02-11T11:36:09.736Z,95458.7
2019-02-11T11:37:13.922Z,95459.1
2019-02-11T11:38:16.093Z,95464.6
2019-02-11T11:39:17.950Z,95465.2
2019-02-11T11:40:20.395Z,95465
2019-02-11T11:41:22.560Z,95462.2
2019-02-11T11:42:24.985Z,95469.4
2019-02-11T11:43:27.162Z,95470.8
2019-02-11T11:44:29.604Z,95471.4
2019-02-11T11:45:31.752Z,95470.8
2019-02-11T11:47:38.892Z,95478.5
2019-02-11T11:48:41.030Z,95478.4
2019-02-11T11:49:43.189Z,95478
2019-02-11T11:50:45.104Z,95484.4
2019-02-11T11:51:47.306Z,95484.5
2019-02-11T11:52:49.740Z,95478
2019-02-11T11:53:51.620Z,95487.6
2019-02-11T11:54:54.081Z,95496.1
2019-02-11T11:55:56.314Z,95490.5
2019-02-11T11:57:00.943Z,95488.4
2019-02-11T11:58:03.378Z,95488.4
2019-02-11T11:59:05.570Z,95488.7
2019-02-11T12:00:07.768Z,95504
2019-02-11T12:01:10.202Z,95497.2
2019-02-11T12:03:17.672Z,95504.3
2019-02-11T12:04:19.907Z,95506.9
2019-02-11T12:05:22.105Z,95502
2019-02-11T12:07:29.542Z,95508.1
2019-02-11T12:08:32.067Z,95506.4
2019-02-11T12:09:34.537Z,95511.9
2019-02-11T12:10:36.712Z,95511.5
2019-02-11T12:11:38.886Z,95522.3
2019-02-11T12:12:41.055Z,95517.3
2019-02-11T12:13:43.231Z,95525.8
2019-02-11T12:14:45.365Z,95529.9
2019-02-11T12:15:47.865Z,95522.6
2019-02-11T12:17:55.465Z,95533.2
2019-02-11T12:18:57.611Z,95531.6
2019-02-11T12:19:59.778Z,95537.4
2019-02-11T12:21:02.261Z,95537.4
2019-02-11T12:22:04.695Z,95532.9
2019-02-11T12:23:06.858Z,95536.6
2019-02-11T12:24:09.020Z,95536.8
2019-02-11T12:25:11.230Z,95534.8
2019-02-11T12:26:13.669Z,95537
2019-02-11T12:27:16.126Z,95537.3
2019-02-11T12:28:18.318Z,95540.8
2019-02-11T12:29:20.476Z,95543.7
2019-02-11T12:30:22.967Z,95537.7
2019-02-11T12:31:25.053Z,95543.4
2019-02-11T12:32:27.482Z,95539.5
2019-02-11T12:33:29.657Z,95548.3
2019-02-11T12:34:32.090Z,95550.9
2019-02-11T12:35:34.556Z,95545.9
2019-02-11T12:36:37.021Z,95547
2019-02-11T12:37:39.200Z,95545.1
2019-02-11T12:38:41.636Z,95549.8
2019-02-11T12:39:44.077Z,95547.9
2019-02-11T12:40:46.581Z,95554.9
2019-02-11T12:41:49.071Z,95557.7
2019-02-11T12:43:56.197Z,95553.7
2019-02-11T12:44:58.658Z,95562.7
2019-02-11T12:46:00.549Z,95567.2
2019-02-11T12:48:07.972Z,95573.8
2019-02-11T12:49:10.413Z,95572.1
2019-02-11T12:50:12.874Z,95578.6
2019-02-11T12:51:14.817Z,95579.3
2019-02-11T12:52:16.694Z,95579.6
2019-02-11T12:53:19.192Z,95571.7
2019-02-11T12:54:21.788Z,95578.3
2019-02-11T12:55:24.256Z,95576.5
2019-02-11T12:56:26.887Z,95584.7
2019-02-11T12:57:29.357Z,95589.3
2019-02-11T12:58:31.778Z,95589.4
2019-02-11T12:59:34.239Z,95585.4
2019-02-11T13:00:36.402Z,95589.2
2019-02-11T13:01:38.841Z,95592.8
2019-02-11T13:02:41.298Z,95589.3
2019-02-11T13:03:43.197Z,95593.9
2019-02-11T13:04:45.671Z,95596.4
2019-02-11T13:05:48.314Z,95600.7